• Join FlightAware (Why Join?)
  • Login
  • US Flag 
05:50AM EST


 

Airport Tracker/Info


-or-


 

Live Flight TrackerFlight Track Log ✈ EGC585 ✈ 11-May-2013 ✈ KHDN - KIND

Flight Track Log - Related Links

Times and Time Zones

All times are in EDT time to prevent confusion due to time zone crossing. See the EGC585 flight status page for this flight to view local times or setup timezone preferences in your user account.

Time Position Orientation Groundspeed Altitude Reporting Facility
EDT Latitude Longitude Course Direction KTS MPH feet Rate Location/Type
11:32AM 40.4867 -107.2294 90° East 12 14 6,500  Level Denver Center
11:33AM 40.4875 -107.2342 283° West 13 15 6,500  Level Denver Center
11:34AM 40.4836 -107.2264 123° Southeast 25 29 6,500 960 Level Denver Center
11:35AM 40.4758 -107.1661 100° East 124 143 8,500 1,980 Climbing Denver Center
11:36AM 40.4875 -107.0831 80° East 189 217 10,600 2,160 Climbing Denver Center
11:38AM 40.4834 -106.3942 90° East  Level FlightAware Approximate
11:38AM 40.4861 -106.9825 91° East 248 285 13,000  Level Denver Center
11:39AM 40.4834 -106.2568 90° East  Level FlightAware Approximate
11:39AM 40.4878 -106.8814 89° East 272 313 15,500  Level Denver Center
11:40AM 40.4911 -106.7772 88° East 283 326 17,800 1,740 Climbing Denver Center
11:41AM 40.4919 -106.6644 89° East 303 349 19,200 1,800 Climbing Denver Center
11:42AM 40.4933 -106.5464 89° East 319 367 21,600 2,460 Climbing Denver Center
11:43AM 40.4947 -106.4200 89° East 307 353 24,300 2,220 Climbing Denver Center
11:44AM 40.4967 -106.3144 89° East 302 348 26,200 1,800 Climbing Denver Center
11:45AM 40.4969 -106.1864 90° East 313 360 28,100 1,860 Climbing Denver Center
11:46AM 40.4981 -106.0706 89° East 317 365 30,100 1,740 Climbing Denver Center
11:47AM 40.4989 -105.9569 89° East 313 360 31,800 1,560 Climbing Denver Center
11:48AM 40.4994 -105.8411 90° East 316 364 33,400 1,500 Climbing Denver Center
11:49AM 40.5017 -105.7289 88° East 308 354 34,900 1,380 Climbing Denver Center
11:50AM 40.5022 -105.6156 90° East 308 354 36,300 960 Climbing Denver Center
11:51AM 40.5022 -105.5033 90° East 307 353 37,000 300 Climbing Denver Center
11:52AM 40.5022 -105.3633 90° East 340 391 37,000  Level Denver Center
11:53AM 40.5042 -105.2128 89° East 367 422 37,000  Level Denver Center
11:54AM 40.5036 -105.0786 90° East 383 441 37,000  Level Denver Center
11:55AM 40.5044 -104.9300 90° East 380 437 37,000  Level Denver Center
11:56AM 40.5042 -104.7903 90° East 381 438 37,000  Level Denver Center
11:57AM 40.5044 -104.6419 90° East 378 435 37,000  Level Denver Center
11:58AM 40.5069 -104.4661 89° East 393 452 37,000  Level Denver Center
11:59AM 40.5175 -104.3325 84° East 383 441 37,000  Level Denver Center
12:00PM 40.5236 -104.1906 87° East 391 450 37,000  Level Denver Center
12:01PM 40.5314 -104.0414 86° East 373 429 37,000  Level Denver Center
12:03PM 40.5378 -103.9078 86° East 382 440 37,000  Level Denver Center
12:04PM 40.5467 -103.7494 86° East 388 447 37,000  Level Denver Center
12:05PM 40.5531 -103.6153 86° East 386 444 37,000  Level Denver Center
12:06PM 40.5594 -103.4789 86° East 389 448 37,000  Level Denver Center
12:07PM 40.5667 -103.3281 86° East 388 447 37,000  Level Denver Center
12:08PM 40.5739 -103.1678 87° East 394 453 37,000  Level Denver Center
12:09PM 40.5800 -103.0308 87° East 393 452 37,000  Level Denver Center
12:10PM 40.5864 -102.8708 87° East 394 453 37,000  Level Denver Center
12:11PM 40.5925 -102.7319 87° East 396 456 37,000  Level Denver Center
12:12PM 40.5997 -102.5717 87° East 395 455 37,000  Level Denver Center
12:13PM 40.6044 -102.4336 87° East 395 455 37,000  Level Denver Center
12:14PM 40.6097 -102.2950 87° East 396 456 37,000  Level Denver Center
12:15PM 40.6172 -102.1331 86° East 396 456 37,000  Level Denver Center
12:16PM 40.6219 -101.9942 87° East 396 456 37,000  Level Denver Center
12:17PM 40.6267 -101.8317 88° East 398 458 37,000  Level Denver Center
12:18PM 40.6317 -101.6922 87° East 400 460 37,000  Level Denver Center
12:19PM 40.6378 -101.5292 87° East 399 459 37,000  Level Denver Center
12:20PM 40.6419 -101.3883 88° East 402 463 37,000  Level Denver Center
12:21PM 40.6469 -101.2250 88° East 402 463 37,000  Level Denver Center
12:22PM 40.6506 -101.0844 88° East 402 463 37,000  Level Denver Center
12:23PM 40.6544 -100.9208 88° East 403 464 37,000  Level Denver Center
12:24PM 40.6578 -100.7806 88° East 406 467 37,000  Level Denver Center
12:25PM 40.6617 -100.6156 88° East 410 472 37,100 540 Climbing Denver Center
12:26PM 40.6656 -100.4781 88° East 398 458 38,200 840 Climbing Denver Center
12:27PM 40.6686 -100.3181 89° East 395 455 38,900 360 Climbing Denver Center
12:28PM 40.6717 -100.1783 88° East 400 460 39,000  Climbing Denver Center
12:29PM 40.6747 -100.0067 89° East 419 482 39,000  Level Denver Center
12:30PM 40.6769 -99.8569 89° East 427 491 39,000  Level Denver Center
12:31PM 40.6803 -99.6975 88° East 427 491 39,000  Level Denver Center
12:32PM 40.6817 -99.5428 89° East 425 489 39,000  Level Denver Center
12:33PM 40.6844 -99.3883 89° East 422 486 39,000  Level Denver Center
12:34PM 40.6858 -99.2036 89° East 423 487 39,000  Level Denver Center
12:36PM 40.6881 -99.0517 89° East 422 486 39,000  Level Minneapolis Center
12:37PM 40.6889 -98.9000 90° East 419 482 39,000  Level Minneapolis Center
12:38PM 40.6897 -98.7489 90° East 417 480 39,000  Level Minneapolis Center
12:39PM 40.6906 -98.5667 90° East 418 481 39,000  Level Minneapolis Center
12:40PM 40.6922 -98.4164 89° East 414 476 39,000  Level Minneapolis Center
12:41PM 40.6925 -98.2650 90° East 415 478 39,000  Level Minneapolis Center
12:42PM 40.6922 -98.1128 90° East 417 480 39,000  Level Minneapolis Center
12:43PM 40.6939 -97.9614 89° East 415 478 39,000  Level Minneapolis Center
12:44PM 40.6922 -97.8086 91° East 417 480 39,000  Level Minneapolis Center
12:45PM 40.6922 -97.6258 90° East 417 480 39,000  Level Minneapolis Center
12:46PM 40.6908 -97.4736 91° East 417 480 39,000  Level Minneapolis Center
12:47PM 40.6917 -97.3269 90° East 416 479 39,000  Level Minneapolis Center
12:48PM 40.6903 -97.1739 91° East 419 482 39,000  Level Minneapolis Center
12:49PM 40.6892 -97.0200 90° East 420 483 39,000  Level Minneapolis Center
12:50PM 40.6889 -96.8667 90° East 421 484 39,000  Level Minneapolis Center
12:51PM 40.6858 -96.6508 91° East 422 486 39,000  Level Minneapolis Center
12:52PM 40.6839 -96.4983 91° East 419 482 39,000  Level Minneapolis Center
12:53PM 40.6822 -96.3742 91° East 423 487 39,000  Level Minneapolis Center
12:54PM 40.6800 -96.1928 91° East 418 481 39,000  Level Minneapolis Center
12:55PM 40.6781 -96.0692 91° East 421 484 39,000  Level Minneapolis Center
12:56PM 40.6750 -95.8825 91° East 426 490 39,000  Level Minneapolis Center
12:57PM 40.6717 -95.6972 91° East 425 489 39,000  Level Minneapolis Center
12:58PM 40.6692 -95.5414 91° East 427 491 39,000  Level Minneapolis Center
12:59PM 40.6664 -95.3856 91° East 429 494 39,000  Level Minneapolis Center
01:01PM 40.6628 -95.2294 92° East 428 493 39,000  Level Minneapolis Center
01:02PM 40.6594 -95.0733 92° East 428 493 39,000  Level Minneapolis Center
01:03PM 40.6561 -94.9181 92° East 427 491 39,000  Level Minneapolis Center
01:04PM 40.6489 -94.7297 93° East 429 494 39,000  Level Minneapolis Center
01:05PM 40.6456 -94.5725 92° East 430 495 39,000  Level Minneapolis Center
01:06PM 40.6403 -94.4347 93° East 432 497 39,000  Level Minneapolis Center
01:07PM 40.6358 -94.2467 92° East 432 497 39,000  Level Minneapolis Center
01:08PM 40.6294 -94.0900 93° East 432 497 39,000  Level Minneapolis Center
01:09PM 40.6236 -93.9322 93° East 434 499 39,000  Level Minneapolis Center
01:10PM 40.6189 -93.7753 92° East 433 498 39,000  Level Minneapolis Center
01:11PM 40.6114 -93.5864 93° East 433 498 39,000  Level Minneapolis Center
01:12PM 40.6047 -93.4289 93° East 433 498 39,000  Level Minneapolis Center
01:13PM 40.5983 -93.2711 93° East 431 496 39,000  Level Kansas City Center
01:14PM 40.5922 -93.1142 93° East 432 497 39,000  Level Kansas City Center
01:15PM 40.5858 -92.9544 93° East 432 497 39,000  Level Kansas City Center
01:16PM 40.5786 -92.8039 94° East 431 496 39,000  Level Kansas City Center
01:17PM 40.5717 -92.6275 93° East 434 499 39,000  Level Kansas City Center
01:18PM 40.5644 -92.4686 93° East 436 502 39,000  Level Kansas City Center
01:19PM 40.5572 -92.3192 94° East 438 504 39,000  Level Kansas City Center
01:20PM 40.5475 -92.1269 94° East 439 505 39,000  Level Kansas City Center
01:21PM 40.5392 -91.9661 94° East 441 507 39,000  Level Kansas City Center
01:22PM 40.5308 -91.8056 94° East 441 507 39,000  Level Kansas City Center
01:23PM 40.5222 -91.6458 94° East 442 509 39,000  Level Kansas City Center
01:24PM 40.5131 -91.4869 94° East 439 505 39,000  Level Kansas City Center
01:25PM 40.5033 -91.2819 94° East 441 507 39,000  Level Chicago Center
01:26PM 40.4936 -91.1206 94° East 444 511 39,000  Level Chicago Center
01:27PM 40.4839 -90.9600 95° East 443 510 39,000  Level Chicago Center
01:28PM 40.4739 -90.7994 95° East 443 510 39,000  Level Chicago Center
01:30PM 40.4642 -90.6381 94° East 443 510 39,000  Level Chicago Center
01:31PM 40.4544 -90.4786 95° East 442 509 39,000  Level Chicago Center
01:32PM 40.4411 -90.2856 95° East 444 511 39,000  Level Chicago Center
01:33PM 40.4300 -90.1267 95° East 443 510 39,000  Level Chicago Center
01:34PM 40.4189 -89.9667 95° East 445 512 39,000  Level Chicago Center
01:35PM 40.4075 -89.8086 95° East 442 509 39,000  Level Chicago Center
01:36PM 40.3964 -89.6506 95° East 441 507 39,000  Level Chicago Center
01:37PM 40.3828 -89.4594 95° East 441 507 39,000 -60 Level Chicago Center
01:38PM 40.3711 -89.2992 95° East 444 511 38,900 -540 Descending Chicago Center
01:39PM 40.3589 -89.1381 96° East 447 514 37,900 -960 Descending Chicago Center
01:40PM 40.3467 -88.9750 96° East 450 518 37,000 -1,260 Descending Chicago Center
01:41PM 40.3342 -88.8122 96° East 451 519 35,400 -1,740 Descending Chicago Center
01:42PM 40.3208 -88.6525 96° East 445 512 33,500 -1,920 Descending Chicago Center
01:43PM 40.3067 -88.4722 96° East 450 518 31,500 -1,860 Descending Chicago Center
01:44PM 40.2936 -88.3114 96° East 449 517 29,700 -1,800 Descending Chicago Center
01:45PM 40.2797 -88.1497 96° East 453 521 27,800 -2,040 Descending Chicago Center
01:46PM 40.2647 -87.9536 96° East 456 525 25,600 -2,040 Descending Chicago Center
01:47PM 40.2539 -87.8547 98° East 451 519 24,400 -1,920 Descending Indianapolis Center
01:48PM 40.2408 -87.7003 96° East 436 502 22,400 -1,920 Descending Indianapolis Center
01:49PM 40.2289 -87.5522 96° East 418 481 20,500 -1,860 Descending Indianapolis Center
01:49PM 40.2253 -87.4989 95° East 411 473 19,900 -1,740 Descending Chicago Center
01:50PM 40.2083 -87.3506 98° East 401 461 18,100 -1,680 Descending Chicago Center
01:51PM 40.1964 -87.2092 96° East 392 451 16,500 -1,620 Descending Chicago Center
01:52PM 40.1850 -87.0708 96° East 388 447 14,900 -1,500 Descending Chicago Center
01:53PM 40.1719 -86.9389 97° East 375 432 13,500 -960 Descending Chicago Center
01:54PM 40.1200 -86.8081 117° Southeast 347 399 13,000 -300 Descending Chicago Center
01:55PM 40.0797 -86.7506 132° Southeast 349 402 13,000 -660 Level Indianapolis Center
01:56PM 40.0169 -86.6594 132° Southeast 342 394 11,900 -1,260 Descending Indianapolis Center
01:57PM 39.9550 -86.5700 132° Southeast 337 388 10,500 -1,380 Descending Indianapolis Center
01:58PM 39.9006 -86.4917 132° Southeast 305 351 9,100 -1,320 Descending Indianapolis Center
01:59PM 39.8506 -86.4192 132° Southeast 280 322 7,800 -1,320 Descending Indianapolis Center
02:00PM 39.8108 -86.3431 124° Southeast 267 307 6,500 -1,380 Descending Indianapolis Center
02:00PM 39.8167 -86.3000 80° East 242 278 5,900 -1,200 Descending Indianapolis TRACON
02:01PM 39.8667 -86.2333 46° Northeast 228 262 4,800 -840 Descending Indianapolis TRACON
02:02PM 39.8833 -86.1667 72° East 223 257 4,300 -780 Descending Indianapolis TRACON
02:03PM 39.8167 -86.1500 169° South 201 231 3,300 -840 Descending Indianapolis TRACON
02:04PM 39.7833 -86.2000 229° Southwest 173 199 2,700 -840 Descending Indianapolis TRACON
02:05PM 39.7500 -86.2333 218° Southwest 167 192 1,700 -780 Descending Indianapolis TRACON
02:07PM 39.7153 -86.2892 231° Southwest 146 168 700 -600 Descending Indianapolis Center